CWSW

Sparwood / Elk Valley Airport

Sparwood/Elk Valley, Canada
METAR CWSW 200100Z 18003KT 160V270 20SM FEW060TCU SCT100 22/07 A3022 RMK TCU2AC1 LAST STFD OBS/NEXT 201300 UTC SLP225 DENSITY ALT 5200FT
Observed Flight Rules
Jun-20 @ 01:00 UTC (5 hours ago) Visual Flight Rules
Wind Visibility Clouds
180° at 3 knots 20 miles
  • Few at 6,000' AGL
  • Scattered at 10,000' AGL
Temperatures Readings
Current 22°C / 72°F
Dewpoint 7°C / 45°F
Humidity 38%
Altimeter 30.22" Hg
Pressure 1022.5 hPa
Elevation 1138
METAR CWSW 200100Z 18003KT 160V270 20SM FEW060TCU SCT100 22/07 A3022 RMK TCU2AC1 LAST STFD OBS/NEXT 201300 UTC SLP225 DENSITY ALT 5200FT
Observed Flight Rules
Jun-20 @ 01:00 UTC
(5 hours ago)
VFR
Wind Visibility
180° at 3 knots 20 miles
Clouds
  • Few at 6,000' AGL
  • Scattered at 10,000' AGL
Temperature Dewpoint
22°C / 72°F 7°C / 45°F
Humidity Altimeter Pressure
38% 30.22" Hg 1022.5 hPa